sensor_id;sensor_type;location;lat;lon;timestamp;temperature;humidity
27226;DHT22;14732;51.074;3.788;2022-11-20T00:00:53;6.30;99.90
27226;DHT22;14732;51.074;3.788;2022-11-20T00:03:19;6.50;99.90
27226;DHT22;14732;51.074;3.788;2022-11-20T00:05:45;6.60;99.90
27226;DHT22;14732;51.074;3.788;2022-11-20T00:08:10;6.60;99.90
27226;DHT22;14732;51.074;3.788;2022-11-20T00:10:37;6.70;99.90
27226;DHT22;14732;51.074;3.788;2022-11-20T00:13:03;6.90;99.90
27226;DHT22;14732;51.074;3.788;2022-11-20T00:15:29;6.60;99.90
27226;DHT22;14732;51.074;3.788;2022-11-20T00:17:54;6.40;99.90
27226;DHT22;14732;51.074;3.788;2022-11-20T00:20:20;6.30;99.90
27226;DHT22;14732;51.074;3.788;2022-11-20T00:22:46;6.10;99.90
27226;DHT22;14732;51.074;3.788;2022-11-20T00:25:11;6.20;99.90
27226;DHT22;14732;51.074;3.788;2022-11-20T00:27:37;6.50;99.90
27226;DHT22;14732;51.074;3.788;2022-11-20T00:30:04;6.60;99.90
27226;DHT22;14732;51.074;3.788;2022-11-20T00:32:30;6.50;99.90
27226;DHT22;14732;51.074;3.788;2022-11-20T00:34:55;6.40;99.90
27226;DHT22;14732;51.074;3.788;2022-11-20T00:37:21;6.40;99.90
27226;DHT22;14732;51.074;3.788;2022-11-20T00:39:47;6.50;99.90
27226;DHT22;14732;51.074;3.788;2022-11-20T00:42:12;6.50;99.90
27226;DHT22;14732;51.074;3.788;2022-11-20T00:44:38;6.50;99.90
27226;DHT22;14732;51.074;3.788;2022-11-20T00:47:04;6.70;99.90
27226;DHT22;14732;51.074;3.788;2022-11-20T00:49:29;6.70;99.90
27226;DHT22;14732;51.074;3.788;2022-11-20T00:51:55;6.50;99.90
27226;DHT22;14732;51.074;3.788;2022-11-20T00:54:21;6.40;99.90
27226;DHT22;14732;51.074;3.788;2022-11-20T00:56:46;6.40;99.90
27226;DHT22;14732;51.074;3.788;2022-11-20T00:59:12;6.40;99.90
27226;DHT22;14732;51.074;3.788;2022-11-20T01:01:38;6.40;99.90
27226;DHT22;14732;51.074;3.788;2022-11-20T01:04:04;6.40;99.90
27226;DHT22;14732;51.074;3.788;2022-11-20T01:06:35;6.30;99.90
27226;DHT22;14732;51.074;3.788;2022-11-20T01:09:04;6.30;99.90
27226;DHT22;14732;51.074;3.788;2022-11-20T01:11:34;6.30;99.90
27226;DHT22;14732;51.074;3.788;2022-11-20T01:14:01;6.20;99.90
27226;DHT22;14732;51.074;3.788;2022-11-20T01:16:35;6.00;99.90
27226;DHT22;14732;51.074;3.788;2022-11-20T01:19:05;5.90;99.90
27226;DHT22;14732;51.074;3.788;2022-11-20T01:21:39;5.90;99.90
27226;DHT22;14732;51.074;3.788;2022-11-20T01:24:07;6.10;99.90
27226;DHT22;14732;51.074;3.788;2022-11-20T01:26:35;6.30;99.90
27226;DHT22;14732;51.074;3.788;2022-11-20T01:29:01;6.40;99.90
27226;DHT22;14732;51.074;3.788;2022-11-20T01:31:29;6.60;99.90
27226;DHT22;14732;51.074;3.788;2022-11-20T01:33:58;6.50;99.90
27226;DHT22;14732;51.074;3.788;2022-11-20T01:36:26;6.50;99.90
27226;DHT22;14732;51.074;3.788;2022-11-20T01:38:54;6.30;99.90
27226;DHT22;14732;51.074;3.788;2022-11-20T01:41:21;6.30;99.90
27226;DHT22;14732;51.074;3.788;2022-11-20T01:44:06;6.40;99.90
27226;DHT22;14732;51.074;3.788;2022-11-20T01:46:57;6.50;99.90
27226;DHT22;14732;51.074;3.788;2022-11-20T01:49:58;6.60;99.90
27226;DHT22;14732;51.074;3.788;2022-11-20T01:52:37;6.40;99.90
27226;DHT22;14732;51.074;3.788;2022-11-20T01:55:12;6.60;99.90
27226;DHT22;14732;51.074;3.788;2022-11-20T01:57:38;6.60;99.90
27226;DHT22;14732;51.074;3.788;2022-11-20T02:00:08;6.60;99.90
27226;DHT22;14732;51.074;3.788;2022-11-20T02:02:35;6.50;99.90
27226;DHT22;14732;51.074;3.788;2022-11-20T02:05:21;6.60;99.90
27226;DHT22;14732;51.074;3.788;2022-11-20T02:07:48;6.40;99.90
27226;DHT22;14732;51.074;3.788;2022-11-20T02:10:15;6.20;99.90
27226;DHT22;14732;51.074;3.788;2022-11-20T02:12:40;6.30;99.90
27226;DHT22;14732;51.074;3.788;2022-11-20T02:15:25;6.30;99.90
27226;DHT22;14732;51.074;3.788;2022-11-20T02:17:51;6.30;99.90
27226;DHT22;14732;51.074;3.788;2022-11-20T02:20:16;6.30;99.90
27226;DHT22;14732;51.074;3.788;2022-11-20T02:22:59;6.20;99.90
27226;DHT22;14732;51.074;3.788;2022-11-20T02:25:30;6.10;99.90
27226;DHT22;14732;51.074;3.788;2022-11-20T02:27:56;6.20;99.90
27226;DHT22;14732;51.074;3.788;2022-11-20T02:30:22;6.20;99.90
27226;DHT22;14732;51.074;3.788;2022-11-20T02:32:47;6.30;99.90
27226;DHT22;14732;51.074;3.788;2022-11-20T02:37:48;6.30;99.90
27226;DHT22;14732;51.074;3.788;2022-11-20T02:40:15;6.30;99.90
27226;DHT22;14732;51.074;3.788;2022-11-20T02:42:40;6.30;99.90
27226;DHT22;14732;51.074;3.788;2022-11-20T02:45:07;6.20;99.90
27226;DHT22;14732;51.074;3.788;2022-11-20T02:47:33;6.20;99.90
27226;DHT22;14732;51.074;3.788;2022-11-20T02:49:59;6.20;99.90
27226;DHT22;14732;51.074;3.788;2022-11-20T02:52:25;6.30;99.90
27226;DHT22;14732;51.074;3.788;2022-11-20T02:54:51;6.30;99.90
27226;DHT22;14732;51.074;3.788;2022-11-20T02:57:16;6.50;99.90
27226;DHT22;14732;51.074;3.788;2022-11-20T02:59:42;6.50;99.90
27226;DHT22;14732;51.074;3.788;2022-11-20T03:02:08;6.60;99.90
27226;DHT22;14732;51.074;3.788;2022-11-20T03:04:33;6.60;99.90
27226;DHT22;14732;51.074;3.788;2022-11-20T03:06:59;6.60;99.90
27226;DHT22;14732;51.074;3.788;2022-11-20T03:09:24;6.60;99.90
27226;DHT22;14732;51.074;3.788;2022-11-20T03:11:50;6.70;99.90
27226;DHT22;14732;51.074;3.788;2022-11-20T03:14:16;6.70;99.90
27226;DHT22;14732;51.074;3.788;2022-11-20T03:16:42;6.80;99.90
27226;DHT22;14732;51.074;3.788;2022-11-20T03:19:08;6.80;99.90
27226;DHT22;14732;51.074;3.788;2022-11-20T03:21:34;6.80;99.90
27226;DHT22;14732;51.074;3.788;2022-11-20T03:24:00;6.80;99.90
27226;DHT22;14732;51.074;3.788;2022-11-20T03:26:26;6.60;99.90
27226;DHT22;14732;51.074;3.788;2022-11-20T03:28:55;6.60;99.90
27226;DHT22;14732;51.074;3.788;2022-11-20T03:31:29;6.70;99.90
27226;DHT22;14732;51.074;3.788;2022-11-20T03:33:56;6.60;99.90
27226;DHT22;14732;51.074;3.788;2022-11-20T03:36:22;6.70;99.90
27226;DHT22;14732;51.074;3.788;2022-11-20T03:38:48;6.80;99.90
27226;DHT22;14732;51.074;3.788;2022-11-20T03:41:18;6.90;99.90
27226;DHT22;14732;51.074;3.788;2022-11-20T03:46:14;7.00;99.90
27226;DHT22;14732;51.074;3.788;2022-11-20T03:48:40;7.00;99.90
27226;DHT22;14732;51.074;3.788;2022-11-20T03:51:11;6.80;99.90
27226;DHT22;14732;51.074;3.788;2022-11-20T03:53:38;6.70;99.90
27226;DHT22;14732;51.074;3.788;2022-11-20T03:56:04;6.70;99.90
27226;DHT22;14732;51.074;3.788;2022-11-20T03:58:30;6.60;99.90
27226;DHT22;14732;51.074;3.788;2022-11-20T04:00:56;6.40;99.90
27226;DHT22;14732;51.074;3.788;2022-11-20T04:03:22;6.50;99.90
27226;DHT22;14732;51.074;3.788;2022-11-20T04:05:47;6.60;99.90
27226;DHT22;14732;51.074;3.788;2022-11-20T04:08:13;6.40;99.90
27226;DHT22;14732;51.074;3.788;2022-11-20T04:10:38;6.30;99.90
27226;DHT22;14732;51.074;3.788;2022-11-20T04:13:04;6.40;99.90
27226;DHT22;14732;51.074;3.788;2022-11-20T04:15:30;6.50;99.90
27226;DHT22;14732;51.074;3.788;2022-11-20T04:17:55;6.70;99.90
27226;DHT22;14732;51.074;3.788;2022-11-20T04:20:21;6.90;99.90
27226;DHT22;14732;51.074;3.788;2022-11-20T04:22:47;7.00;99.90
27226;DHT22;14732;51.074;3.788;2022-11-20T04:25:12;6.90;99.90
27226;DHT22;14732;51.074;3.788;2022-11-20T04:27:38;6.90;99.90
27226;DHT22;14732;51.074;3.788;2022-11-20T04:30:04;6.90;99.90
27226;DHT22;14732;51.074;3.788;2022-11-20T04:32:30;7.00;99.90
27226;DHT22;14732;51.074;3.788;2022-11-20T04:34:55;7.00;99.90
27226;DHT22;14732;51.074;3.788;2022-11-20T04:37:21;7.00;99.90
27226;DHT22;14732;51.074;3.788;2022-11-20T04:39:47;6.90;99.90
27226;DHT22;14732;51.074;3.788;2022-11-20T04:42:12;6.80;99.90
27226;DHT22;14732;51.074;3.788;2022-11-20T04:44:53;6.70;99.90
27226;DHT22;14732;51.074;3.788;2022-11-20T04:47:19;6.60;99.90
27226;DHT22;14732;51.074;3.788;2022-11-20T04:49:45;6.60;99.90
27226;DHT22;14732;51.074;3.788;2022-11-20T04:52:10;6.50;99.90
27226;DHT22;14732;51.074;3.788;2022-11-20T04:54:36;6.50;99.90
27226;DHT22;14732;51.074;3.788;2022-11-20T04:57:01;6.60;99.90
27226;DHT22;14732;51.074;3.788;2022-11-20T04:59:27;6.40;99.90
27226;DHT22;14732;51.074;3.788;2022-11-20T05:01:53;6.40;99.90
27226;DHT22;14732;51.074;3.788;2022-11-20T05:04:18;6.50;99.90
27226;DHT22;14732;51.074;3.788;2022-11-20T05:06:44;6.70;99.90
27226;DHT22;14732;51.074;3.788;2022-11-20T05:09:11;6.30;99.90
27226;DHT22;14732;51.074;3.788;2022-11-20T05:11:37;6.20;99.90
27226;DHT22;14732;51.074;3.788;2022-11-20T05:14:03;6.10;99.90
27226;DHT22;14732;51.074;3.788;2022-11-20T05:16:29;6.10;99.90
27226;DHT22;14732;51.074;3.788;2022-11-20T05:18:55;6.30;99.90
27226;DHT22;14732;51.074;3.788;2022-11-20T05:21:21;6.70;99.90
27226;DHT22;14732;51.074;3.788;2022-11-20T05:23:47;6.60;99.90
27226;DHT22;14732;51.074;3.788;2022-11-20T05:26:16;6.40;99.90
27226;DHT22;14732;51.074;3.788;2022-11-20T05:28:42;6.30;99.90
27226;DHT22;14732;51.074;3.788;2022-11-20T05:31:11;6.30;99.90
27226;DHT22;14732;51.074;3.788;2022-11-20T05:33:40;6.30;99.90
27226;DHT22;14732;51.074;3.788;2022-11-20T05:36:06;6.40;99.90
27226;DHT22;14732;51.074;3.788;2022-11-20T05:38:32;6.50;99.90
27226;DHT22;14732;51.074;3.788;2022-11-20T05:41:09;6.30;99.90
27226;DHT22;14732;51.074;3.788;2022-11-20T05:43:37;6.20;99.90
27226;DHT22;14732;51.074;3.788;2022-11-20T05:46:03;6.40;99.90
27226;DHT22;14732;51.074;3.788;2022-11-20T05:48:30;6.60;99.90
27226;DHT22;14732;51.074;3.788;2022-11-20T05:50:58;6.80;99.90
27226;DHT22;14732;51.074;3.788;2022-11-20T05:53:24;6.80;99.90
27226;DHT22;14732;51.074;3.788;2022-11-20T05:56:01;6.70;99.90
27226;DHT22;14732;51.074;3.788;2022-11-20T05:58:27;6.80;99.90
27226;DHT22;14732;51.074;3.788;2022-11-20T06:00:53;6.90;99.90
27226;DHT22;14732;51.074;3.788;2022-11-20T06:03:19;7.10;99.90
27226;DHT22;14732;51.074;3.788;2022-11-20T06:05:45;7.20;99.90
27226;DHT22;14732;51.074;3.788;2022-11-20T06:08:10;7.10;99.90
27226;DHT22;14732;51.074;3.788;2022-11-20T06:10:36;7.10;99.90
27226;DHT22;14732;51.074;3.788;2022-11-20T06:13:02;7.10;99.90
27226;DHT22;14732;51.074;3.788;2022-11-20T06:15:27;7.20;99.90
27226;DHT22;14732;51.074;3.788;2022-11-20T06:17:53;7.10;99.90
27226;DHT22;14732;51.074;3.788;2022-11-20T06:20:20;7.10;99.90
27226;DHT22;14732;51.074;3.788;2022-11-20T06:22:46;7.10;99.90
27226;DHT22;14732;51.074;3.788;2022-11-20T06:25:11;7.00;99.90
27226;DHT22;14732;51.074;3.788;2022-11-20T06:27:37;7.10;99.90
27226;DHT22;14732;51.074;3.788;2022-11-20T06:30:03;7.20;99.90
27226;DHT22;14732;51.074;3.788;2022-11-20T06:32:29;7.10;99.90
27226;DHT22;14732;51.074;3.788;2022-11-20T06:34:55;7.30;99.90
27226;DHT22;14732;51.074;3.788;2022-11-20T06:37:21;7.30;99.90
27226;DHT22;14732;51.074;3.788;2022-11-20T06:39:46;7.20;99.90
27226;DHT22;14732;51.074;3.788;2022-11-20T06:42:12;7.10;99.90
27226;DHT22;14732;51.074;3.788;2022-11-20T06:44:37;6.70;99.90
27226;DHT22;14732;51.074;3.788;2022-11-20T06:47:03;6.70;99.90
27226;DHT22;14732;51.074;3.788;2022-11-20T06:49:29;6.60;99.90
27226;DHT22;14732;51.074;3.788;2022-11-20T06:51:55;6.80;99.90
27226;DHT22;14732;51.074;3.788;2022-11-20T06:54:20;6.80;99.90
27226;DHT22;14732;51.074;3.788;2022-11-20T06:56:47;6.90;99.90
27226;DHT22;14732;51.074;3.788;2022-11-20T06:59:13;7.00;99.90
27226;DHT22;14732;51.074;3.788;2022-11-20T07:01:39;7.20;99.90
27226;DHT22;14732;51.074;3.788;2022-11-20T07:04:04;7.20;99.90
27226;DHT22;14732;51.074;3.788;2022-11-20T07:06:30;7.30;99.90
27226;DHT22;14732;51.074;3.788;2022-11-20T07:08:56;7.10;99.90
27226;DHT22;14732;51.074;3.788;2022-11-20T07:11:21;7.20;99.90
27226;DHT22;14732;51.074;3.788;2022-11-20T07:13:47;7.20;99.90
27226;DHT22;14732;51.074;3.788;2022-11-20T07:16:13;7.10;99.90
27226;DHT22;14732;51.074;3.788;2022-11-20T07:18:38;7.00;99.90
27226;DHT22;14732;51.074;3.788;2022-11-20T07:21:07;6.90;99.90
27226;DHT22;14732;51.074;3.788;2022-11-20T07:23:33;7.20;99.90
27226;DHT22;14732;51.074;3.788;2022-11-20T07:26:05;7.40;99.90
27226;DHT22;14732;51.074;3.788;2022-11-20T07:28:31;7.40;99.90
27226;DHT22;14732;51.074;3.788;2022-11-20T07:30:57;7.00;99.90
27226;DHT22;14732;51.074;3.788;2022-11-20T07:33:23;7.00;99.90
27226;DHT22;14732;51.074;3.788;2022-11-20T07:35:49;6.90;99.90
27226;DHT22;14732;51.074;3.788;2022-11-20T07:38:14;6.60;99.90
27226;DHT22;14732;51.074;3.788;2022-11-20T07:40:40;6.80;99.90
27226;DHT22;14732;51.074;3.788;2022-11-20T07:43:06;7.00;99.90
27226;DHT22;14732;51.074;3.788;2022-11-20T07:45:31;7.20;99.90
27226;DHT22;14732;51.074;3.788;2022-11-20T07:47:57;7.10;99.90
27226;DHT22;14732;51.074;3.788;2022-11-20T07:50:23;7.10;99.90
27226;DHT22;14732;51.074;3.788;2022-11-20T07:52:48;7.30;99.90
27226;DHT22;14732;51.074;3.788;2022-11-20T07:55:14;7.20;99.90
27226;DHT22;14732;51.074;3.788;2022-11-20T07:57:40;7.30;99.90
27226;DHT22;14732;51.074;3.788;2022-11-20T08:00:08;7.40;99.90
27226;DHT22;14732;51.074;3.788;2022-11-20T08:02:37;7.60;99.90
27226;DHT22;14732;51.074;3.788;2022-11-20T08:05:04;7.40;99.90
27226;DHT22;14732;51.074;3.788;2022-11-20T08:07:43;7.30;99.90
27226;DHT22;14732;51.074;3.788;2022-11-20T08:10:11;7.10;99.90
27226;DHT22;14732;51.074;3.788;2022-11-20T08:12:44;7.30;99.90
27226;DHT22;14732;51.074;3.788;2022-11-20T08:15:28;7.10;99.90
27226;DHT22;14732;51.074;3.788;2022-11-20T08:18:09;7.30;99.90
27226;DHT22;14732;51.074;3.788;2022-11-20T08:20:38;7.20;99.90
27226;DHT22;14732;51.074;3.788;2022-11-20T08:23:05;7.40;99.90
27226;DHT22;14732;51.074;3.788;2022-11-20T08:25:34;7.40;99.90
27226;DHT22;14732;51.074;3.788;2022-11-20T08:28:01;7.50;99.90
27226;DHT22;14732;51.074;3.788;2022-11-20T08:30:27;7.20;99.90
27226;DHT22;14732;51.074;3.788;2022-11-20T08:32:54;7.10;99.90
27226;DHT22;14732;51.074;3.788;2022-11-20T08:35:21;7.10;99.90
27226;DHT22;14732;51.074;3.788;2022-11-20T08:37:47;7.10;99.90
27226;DHT22;14732;51.074;3.788;2022-11-20T08:40:13;7.10;99.90
27226;DHT22;14732;51.074;3.788;2022-11-20T08:42:51;6.90;99.90
27226;DHT22;14732;51.074;3.788;2022-11-20T08:45:18;7.30;99.90
27226;DHT22;14732;51.074;3.788;2022-11-20T08:47:45;7.50;99.90
27226;DHT22;14732;51.074;3.788;2022-11-20T08:50:12;7.60;99.90
27226;DHT22;14732;51.074;3.788;2022-11-20T08:52:38;7.70;99.90
27226;DHT22;14732;51.074;3.788;2022-11-20T08:55:05;7.90;99.90
27226;DHT22;14732;51.074;3.788;2022-11-20T08:57:32;7.90;99.90
27226;DHT22;14732;51.074;3.788;2022-11-20T08:59:58;7.90;99.90
27226;DHT22;14732;51.074;3.788;2022-11-20T09:02:24;7.90;99.90
27226;DHT22;14732;51.074;3.788;2022-11-20T09:04:50;7.90;99.90
27226;DHT22;14732;51.074;3.788;2022-11-20T09:07:15;8.10;99.90
27226;DHT22;14732;51.074;3.788;2022-11-20T09:09:41;8.10;99.90
27226;DHT22;14732;51.074;3.788;2022-11-20T09:12:07;8.20;99.90
27226;DHT22;14732;51.074;3.788;2022-11-20T09:14:32;8.10;99.90
27226;DHT22;14732;51.074;3.788;2022-11-20T09:16:59;8.10;99.90
27226;DHT22;14732;51.074;3.788;2022-11-20T09:19:25;8.10;99.90
27226;DHT22;14732;51.074;3.788;2022-11-20T09:21:51;8.20;99.90
27226;DHT22;14732;51.074;3.788;2022-11-20T09:24:17;8.40;99.90
27226;DHT22;14732;51.074;3.788;2022-11-20T09:26:42;8.40;99.90
27226;DHT22;14732;51.074;3.788;2022-11-20T09:29:08;8.40;99.90
27226;DHT22;14732;51.074;3.788;2022-11-20T09:31:34;8.60;99.90
27226;DHT22;14732;51.074;3.788;2022-11-20T09:33:59;8.60;99.90
27226;DHT22;14732;51.074;3.788;2022-11-20T09:36:25;8.40;99.90
27226;DHT22;14732;51.074;3.788;2022-11-20T09:38:52;8.60;99.90
27226;DHT22;14732;51.074;3.788;2022-11-20T09:44:13;8.50;99.90
27226;DHT22;14732;51.074;3.788;2022-11-20T09:54:55;8.60;99.90
27226;DHT22;14732;51.074;3.788;2022-11-20T09:57:25;8.70;99.90
27226;DHT22;14732;51.074;3.788;2022-11-20T10:00:00;8.60;99.90
27226;DHT22;14732;51.074;3.788;2022-11-20T10:02:39;8.80;99.90
27226;DHT22;14732;51.074;3.788;2022-11-20T10:05:15;9.00;99.90
27226;DHT22;14732;51.074;3.788;2022-11-20T10:10:40;9.10;99.90
27226;DHT22;14732;51.074;3.788;2022-11-20T10:13:27;9.10;99.90
27226;DHT22;14732;51.074;3.788;2022-11-20T10:29:19;10.00;99.90
27226;DHT22;14732;51.074;3.788;2022-11-20T10:32:01;10.00;99.90
27226;DHT22;14732;51.074;3.788;2022-11-20T10:37:25;10.20;99.90
27226;DHT22;14732;51.074;3.788;2022-11-20T10:40:28;10.30;99.90
27226;DHT22;14732;51.074;3.788;2022-11-20T10:42:58;10.40;99.90
27226;DHT22;14732;51.074;3.788;2022-11-20T10:48:12;10.40;99.90
27226;DHT22;14732;51.074;3.788;2022-11-20T10:50:59;10.60;99.90
27226;DHT22;14732;51.074;3.788;2022-11-20T10:59:12;10.60;99.90
27226;DHT22;14732;51.074;3.788;2022-11-20T11:01:42;10.90;99.90
27226;DHT22;14732;51.074;3.788;2022-11-20T11:04:33;10.90;99.90
27226;DHT22;14732;51.074;3.788;2022-11-20T11:07:11;10.90;99.90
27226;DHT22;14732;51.074;3.788;2022-11-20T11:09:44;10.80;99.90
27226;DHT22;14732;51.074;3.788;2022-11-20T11:12:11;10.80;99.90
27226;DHT22;14732;51.074;3.788;2022-11-20T11:14:49;10.60;99.90
27226;DHT22;14732;51.074;3.788;2022-11-20T11:17:25;10.70;99.90
27226;DHT22;14732;51.074;3.788;2022-11-20T11:20:14;10.80;99.90
27226;DHT22;14732;51.074;3.788;2022-11-20T11:22:59;10.80;99.90
27226;DHT22;14732;51.074;3.788;2022-11-20T11:27:59;11.00;99.90
27226;DHT22;14732;51.074;3.788;2022-11-20T11:30:26;10.90;99.90
27226;DHT22;14732;51.074;3.788;2022-11-20T11:33:03;10.80;99.90
27226;DHT22;14732;51.074;3.788;2022-11-20T11:35:30;10.80;99.90
27226;DHT22;14732;51.074;3.788;2022-11-20T11:38:10;10.80;99.90
27226;DHT22;14732;51.074;3.788;2022-11-20T11:40:39;10.70;99.90
27226;DHT22;14732;51.074;3.788;2022-11-20T11:43:16;10.60;99.90
27226;DHT22;14732;51.074;3.788;2022-11-20T11:46:01;10.70;99.90
27226;DHT22;14732;51.074;3.788;2022-11-20T11:48:27;10.70;99.90
27226;DHT22;14732;51.074;3.788;2022-11-20T11:50:52;10.60;99.90
27226;DHT22;14732;51.074;3.788;2022-11-20T11:53:23;10.50;99.90
27226;DHT22;14732;51.074;3.788;2022-11-20T11:56:08;10.50;99.90
27226;DHT22;14732;51.074;3.788;2022-11-20T11:58:46;10.50;99.90
27226;DHT22;14732;51.074;3.788;2022-11-20T12:01:38;10.40;99.90
27226;DHT22;14732;51.074;3.788;2022-11-20T12:06:45;10.50;99.90
27226;DHT22;14732;51.074;3.788;2022-11-20T12:09:12;10.40;99.90
27226;DHT22;14732;51.074;3.788;2022-11-20T12:12:05;10.20;99.90
27226;DHT22;14732;51.074;3.788;2022-11-20T12:14:34;10.10;99.90
27226;DHT22;14732;51.074;3.788;2022-11-20T12:17:02;10.00;99.90
27226;DHT22;14732;51.074;3.788;2022-11-20T12:19:30;9.90;99.90
27226;DHT22;14732;51.074;3.788;2022-11-20T12:22:28;9.90;99.90
27226;DHT22;14732;51.074;3.788;2022-11-20T12:30:20;9.70;99.90
27226;DHT22;14732;51.074;3.788;2022-11-20T12:33:19;9.70;99.90
27226;DHT22;14732;51.074;3.788;2022-11-20T12:36:13;9.60;99.90
27226;DHT22;14732;51.074;3.788;2022-11-20T12:39:05;9.60;99.90
27226;DHT22;14732;51.074;3.788;2022-11-20T12:45:12;9.60;99.90
27226;DHT22;14732;51.074;3.788;2022-11-20T12:47:49;9.60;99.90
27226;DHT22;14732;51.074;3.788;2022-11-20T12:56:14;9.80;99.90
27226;DHT22;14732;51.074;3.788;2022-11-20T13:01:45;9.80;99.90
27226;DHT22;14732;51.074;3.788;2022-11-20T13:06:50;9.90;99.90
27226;DHT22;14732;51.074;3.788;2022-11-20T13:09:22;9.80;99.90
27226;DHT22;14732;51.074;3.788;2022-11-20T13:14:42;9.70;99.90
27226;DHT22;14732;51.074;3.788;2022-11-20T13:19:40;9.80;99.90
27226;DHT22;14732;51.074;3.788;2022-11-20T13:22:08;9.70;99.90
27226;DHT22;14732;51.074;3.788;2022-11-20T13:24:34;9.70;99.90
27226;DHT22;14732;51.074;3.788;2022-11-20T13:27:04;9.60;99.90
27226;DHT22;14732;51.074;3.788;2022-11-20T13:29:30;9.70;99.90
27226;DHT22;14732;51.074;3.788;2022-11-20T13:32:25;9.80;99.90
27226;DHT22;14732;51.074;3.788;2022-11-20T13:35:02;10.00;99.90
27226;DHT22;14732;51.074;3.788;2022-11-20T13:37:31;10.00;99.90
27226;DHT22;14732;51.074;3.788;2022-11-20T13:42:44;10.00;99.90
27226;DHT22;14732;51.074;3.788;2022-11-20T13:45:25;9.90;99.90
27226;DHT22;14732;51.074;3.788;2022-11-20T13:47:53;9.80;99.90
27226;DHT22;14732;51.074;3.788;2022-11-20T13:50:21;9.80;99.90
27226;DHT22;14732;51.074;3.788;2022-11-20T14:01:26;9.90;99.90
27226;DHT22;14732;51.074;3.788;2022-11-20T14:03:53;9.90;99.90
27226;DHT22;14732;51.074;3.788;2022-11-20T14:08:48;10.20;99.90
27226;DHT22;14732;51.074;3.788;2022-11-20T14:11:19;10.10;99.90
27226;DHT22;14732;51.074;3.788;2022-11-20T14:13:58;10.10;99.90
27226;DHT22;14732;51.074;3.788;2022-11-20T14:16:26;10.20;99.90
27226;DHT22;14732;51.074;3.788;2022-11-20T14:18:52;10.20;99.90
27226;DHT22;14732;51.074;3.788;2022-11-20T14:21:29;10.30;99.90
27226;DHT22;14732;51.074;3.788;2022-11-20T14:24:05;10.40;99.90
27226;DHT22;14732;51.074;3.788;2022-11-20T14:26:32;10.60;99.90
27226;DHT22;14732;51.074;3.788;2022-11-20T14:28:58;10.60;99.90
27226;DHT22;14732;51.074;3.788;2022-11-20T14:31:26;10.70;99.90
27226;DHT22;14732;51.074;3.788;2022-11-20T14:33:53;10.80;99.90
27226;DHT22;14732;51.074;3.788;2022-11-20T14:36:24;10.90;99.90
27226;DHT22;14732;51.074;3.788;2022-11-20T14:38:51;10.90;99.90
27226;DHT22;14732;51.074;3.788;2022-11-20T14:41:22;11.00;99.90
27226;DHT22;14732;51.074;3.788;2022-11-20T14:43:57;10.90;99.90
27226;DHT22;14732;51.074;3.788;2022-11-20T14:46:24;10.90;99.90
27226;DHT22;14732;51.074;3.788;2022-11-20T14:48:54;11.00;99.90
27226;DHT22;14732;51.074;3.788;2022-11-20T14:51:23;10.90;99.90
27226;DHT22;14732;51.074;3.788;2022-11-20T14:53:51;10.80;99.90
27226;DHT22;14732;51.074;3.788;2022-11-20T14:56:22;10.70;99.90
27226;DHT22;14732;51.074;3.788;2022-11-20T14:58:58;10.50;99.90
27226;DHT22;14732;51.074;3.788;2022-11-20T15:01:32;10.50;99.90
27226;DHT22;14732;51.074;3.788;2022-11-20T15:04:10;10.50;99.90
27226;DHT22;14732;51.074;3.788;2022-11-20T15:06:37;10.50;99.90
27226;DHT22;14732;51.074;3.788;2022-11-20T15:09:04;10.40;99.90
27226;DHT22;14732;51.074;3.788;2022-11-20T15:11:35;10.30;99.90
27226;DHT22;14732;51.074;3.788;2022-11-20T15:14:04;10.10;99.90
27226;DHT22;14732;51.074;3.788;2022-11-20T15:16:30;10.00;99.90
27226;DHT22;14732;51.074;3.788;2022-11-20T15:18:56;10.00;99.90
27226;DHT22;14732;51.074;3.788;2022-11-20T15:21:22;9.90;99.90
27226;DHT22;14732;51.074;3.788;2022-11-20T15:23:48;9.90;99.90
27226;DHT22;14732;51.074;3.788;2022-11-20T15:26:18;10.10;99.90
27226;DHT22;14732;51.074;3.788;2022-11-20T15:28:47;10.10;99.90
27226;DHT22;14732;51.074;3.788;2022-11-20T15:31:15;10.10;99.90
27226;DHT22;14732;51.074;3.788;2022-11-20T15:33:41;9.90;99.90
27226;DHT22;14732;51.074;3.788;2022-11-20T15:36:08;9.90;99.90
27226;DHT22;14732;51.074;3.788;2022-11-20T15:38:35;9.80;99.90
27226;DHT22;14732;51.074;3.788;2022-11-20T15:41:00;9.60;99.90
27226;DHT22;14732;51.074;3.788;2022-11-20T15:43:26;9.60;99.90
27226;DHT22;14732;51.074;3.788;2022-11-20T15:45:55;9.40;99.90
27226;DHT22;14732;51.074;3.788;2022-11-20T15:48:28;9.30;99.90
27226;DHT22;14732;51.074;3.788;2022-11-20T15:51:12;9.30;99.90
27226;DHT22;14732;51.074;3.788;2022-11-20T15:53:41;9.30;99.90
27226;DHT22;14732;51.074;3.788;2022-11-20T15:56:14;9.30;99.90
27226;DHT22;14732;51.074;3.788;2022-11-20T15:58:40;9.40;99.90
27226;DHT22;14732;51.074;3.788;2022-11-20T16:01:13;9.30;99.90
27226;DHT22;14732;51.074;3.788;2022-11-20T16:03:40;9.30;99.90
27226;DHT22;14732;51.074;3.788;2022-11-20T16:06:05;9.30;99.90
27226;DHT22;14732;51.074;3.788;2022-11-20T16:08:31;9.30;99.90
27226;DHT22;14732;51.074;3.788;2022-11-20T16:10:57;9.30;99.90
27226;DHT22;14732;51.074;3.788;2022-11-20T16:13:22;9.40;99.90
27226;DHT22;14732;51.074;3.788;2022-11-20T16:16:19;9.50;99.90
27226;DHT22;14732;51.074;3.788;2022-11-20T16:18:45;9.40;99.90
27226;DHT22;14732;51.074;3.788;2022-11-20T16:21:11;9.40;99.90
27226;DHT22;14732;51.074;3.788;2022-11-20T16:23:40;9.30;99.90
27226;DHT22;14732;51.074;3.788;2022-11-20T16:26:12;9.20;99.90
27226;DHT22;14732;51.074;3.788;2022-11-20T16:28:39;9.20;99.90
27226;DHT22;14732;51.074;3.788;2022-11-20T16:31:18;9.20;99.90
27226;DHT22;14732;51.074;3.788;2022-11-20T16:33:49;9.10;99.90
27226;DHT22;14732;51.074;3.788;2022-11-20T16:36:17;9.20;99.90
27226;DHT22;14732;51.074;3.788;2022-11-20T16:38:43;9.20;99.90
27226;DHT22;14732;51.074;3.788;2022-11-20T16:41:09;9.20;99.90
27226;DHT22;14732;51.074;3.788;2022-11-20T16:43:59;9.30;99.90
27226;DHT22;14732;51.074;3.788;2022-11-20T16:46:30;9.40;99.90
27226;DHT22;14732;51.074;3.788;2022-11-20T16:49:04;9.40;99.90
27226;DHT22;14732;51.074;3.788;2022-11-20T16:51:33;9.20;99.90
27226;DHT22;14732;51.074;3.788;2022-11-20T16:54:02;9.40;99.90
27226;DHT22;14732;51.074;3.788;2022-11-20T16:56:27;9.20;99.90
27226;DHT22;14732;51.074;3.788;2022-11-20T16:58:55;9.10;99.90
27226;DHT22;14732;51.074;3.788;2022-11-20T17:01:22;9.00;99.90
27226;DHT22;14732;51.074;3.788;2022-11-20T17:03:56;8.90;99.90
27226;DHT22;14732;51.074;3.788;2022-11-20T17:06:24;8.90;99.90
27226;DHT22;14732;51.074;3.788;2022-11-20T17:08:52;9.10;99.90
27226;DHT22;14732;51.074;3.788;2022-11-20T17:11:18;9.10;99.90
27226;DHT22;14732;51.074;3.788;2022-11-20T17:13:45;9.20;99.90
27226;DHT22;14732;51.074;3.788;2022-11-20T17:16:16;9.40;99.90
27226;DHT22;14732;51.074;3.788;2022-11-20T17:18:42;9.30;99.90
27226;DHT22;14732;51.074;3.788;2022-11-20T17:21:09;9.30;99.90
27226;DHT22;14732;51.074;3.788;2022-11-20T17:23:36;9.30;99.90